sensor_id;sensor_type;location;lat;lon;timestamp;pressure;altitude;pressure_sealevel;temperature;humidity
14067;BME280;7108;42.684;23.350;2023-03-13T00:00:30;95568.00;;;3.39;100.00
14067;BME280;7108;42.684;23.350;2023-03-13T00:02:59;95604.19;;;3.62;100.00
14067;BME280;7108;42.684;23.350;2023-03-13T00:05:24;95579.91;;;3.64;100.00
14067;BME280;7108;42.684;23.350;2023-03-13T00:07:50;95588.59;;;3.78;100.00
14067;BME280;7108;42.684;23.350;2023-03-13T00:10:15;95589.53;;;3.82;100.00
14067;BME280;7108;42.684;23.350;2023-03-13T00:12:41;95597.13;;;3.88;100.00
14067;BME280;7108;42.684;23.350;2023-03-13T00:15:07;95586.09;;;3.81;100.00
14067;BME280;7108;42.684;23.350;2023-03-13T00:17:33;95597.50;;;3.73;100.00
14067;BME280;7108;42.684;23.350;2023-03-13T00:19:58;95588.59;;;3.56;100.00
14067;BME280;7108;42.684;23.350;2023-03-13T00:22:24;95581.72;;;3.55;100.00
14067;BME280;7108;42.684;23.350;2023-03-13T00:24:49;95577.94;;;3.47;100.00
14067;BME280;7108;42.684;23.350;2023-03-13T00:27:15;95570.84;;;3.21;100.00
14067;BME280;7108;42.684;23.350;2023-03-13T00:29:41;95613.19;;;3.31;100.00
14067;BME280;7108;42.684;23.350;2023-03-13T00:32:06;95581.34;;;3.04;100.00
14067;BME280;7108;42.684;23.350;2023-03-13T00:34:32;95619.50;;;3.35;100.00
14067;BME280;7108;42.684;23.350;2023-03-13T00:36:57;95603.63;;;3.30;100.00
14067;BME280;7108;42.684;23.350;2023-03-13T00:39:23;95610.16;;;3.46;100.00
14067;BME280;7108;42.684;23.350;2023-03-13T00:41:48;95590.75;;;3.23;100.00
14067;BME280;7108;42.684;23.350;2023-03-13T00:44:14;95615.69;;;3.49;100.00
14067;BME280;7108;42.684;23.350;2023-03-13T00:46:39;95615.69;;;3.49;100.00
14067;BME280;7108;42.684;23.350;2023-03-13T00:49:05;95596.19;;;3.40;100.00
14067;BME280;7108;42.684;23.350;2023-03-13T00:51:31;95575.13;;;3.09;100.00
14067;BME280;7108;42.684;23.350;2023-03-13T00:53:57;95601.72;;;3.22;100.00
14067;BME280;7108;42.684;23.350;2023-03-13T00:56:28;95596.31;;;3.14;100.00
14067;BME280;7108;42.684;23.350;2023-03-13T00:58:54;95601.47;;;3.32;100.00
14067;BME280;7108;42.684;23.350;2023-03-13T01:01:24;95599.22;;;3.25;100.00
14067;BME280;7108;42.684;23.350;2023-03-13T01:03:54;95585.97;;;3.12;100.00
14067;BME280;7108;42.684;23.350;2023-03-13T01:06:23;95606.78;;;3.10;100.00
14067;BME280;7108;42.684;23.350;2023-03-13T01:08:50;95607.34;;;3.21;100.00
14067;BME280;7108;42.684;23.350;2023-03-13T01:11:21;95609.69;;;3.22;100.00
14067;BME280;7108;42.684;23.350;2023-03-13T01:13:47;95605.84;;;3.28;100.00
14067;BME280;7108;42.684;23.350;2023-03-13T01:16:18;95597.59;;;3.38;100.00
14067;BME280;7108;42.684;23.350;2023-03-13T01:18:55;95609.41;;;3.45;100.00
14067;BME280;7108;42.684;23.350;2023-03-13T01:21:22;95606.34;;;3.38;100.00
14067;BME280;7108;42.684;23.350;2023-03-13T01:23:48;95568.88;;;3.26;100.00
14067;BME280;7108;42.684;23.350;2023-03-13T01:26:15;95579.09;;;3.33;100.00
14067;BME280;7108;42.684;23.350;2023-03-13T01:28:40;95597.22;;;3.31;100.00
14067;BME280;7108;42.684;23.350;2023-03-13T01:31:14;95599.31;;;3.34;100.00
14067;BME280;7108;42.684;23.350;2023-03-13T01:33:40;95607.94;;;3.39;100.00
14067;BME280;7108;42.684;23.350;2023-03-13T01:36:06;95610.59;;;3.39;100.00
14067;BME280;7108;42.684;23.350;2023-03-13T01:38:33;95621.50;;;3.51;100.00
14067;BME280;7108;42.684;23.350;2023-03-13T01:40:58;95612.91;;;3.54;100.00
14067;BME280;7108;42.684;23.350;2023-03-13T01:43:28;95631.09;;;3.61;100.00
14067;BME280;7108;42.684;23.350;2023-03-13T01:48:48;95629.56;;;3.60;100.00
14067;BME280;7108;42.684;23.350;2023-03-13T01:51:18;95618.59;;;3.61;100.00
14067;BME280;7108;42.684;23.350;2023-03-13T01:53:46;95624.25;;;3.68;100.00
14067;BME280;7108;42.684;23.350;2023-03-13T01:56:19;95625.38;;;3.67;100.00
14067;BME280;7108;42.684;23.350;2023-03-13T01:58:48;95622.75;;;3.76;100.00
14067;BME280;7108;42.684;23.350;2023-03-13T02:01:16;95616.50;;;3.58;100.00
14067;BME280;7108;42.684;23.350;2023-03-13T02:03:42;95629.69;;;3.55;100.00
14067;BME280;7108;42.684;23.350;2023-03-13T02:06:08;95632.50;;;3.58;100.00
14067;BME280;7108;42.684;23.350;2023-03-13T02:08:39;95634.13;;;3.68;100.00
14067;BME280;7108;42.684;23.350;2023-03-13T02:13:42;95625.56;;;3.49;100.00
14067;BME280;7108;42.684;23.350;2023-03-13T02:16:11;95637.19;;;3.53;100.00
14067;BME280;7108;42.684;23.350;2023-03-13T02:18:37;95648.31;;;3.55;100.00
14067;BME280;7108;42.684;23.350;2023-03-13T02:21:18;95642.75;;;3.43;100.00
14067;BME280;7108;42.684;23.350;2023-03-13T02:26:22;95628.03;;;3.23;100.00
14067;BME280;7108;42.684;23.350;2023-03-13T02:28:48;95634.16;;;3.24;100.00
14067;BME280;7108;42.684;23.350;2023-03-13T02:31:14;95664.09;;;3.29;100.00
14067;BME280;7108;42.684;23.350;2023-03-13T02:33:41;95662.16;;;3.43;100.00
14067;BME280;7108;42.684;23.350;2023-03-13T02:36:08;95655.81;;;3.31;100.00
14067;BME280;7108;42.684;23.350;2023-03-13T02:38:38;95665.75;;;3.39;100.00
14067;BME280;7108;42.684;23.350;2023-03-13T02:41:06;95666.53;;;3.39;100.00
14067;BME280;7108;42.684;23.350;2023-03-13T02:43:35;95676.56;;;3.42;100.00
14067;BME280;7108;42.684;23.350;2023-03-13T02:48:39;95693.78;;;3.36;100.00
14067;BME280;7108;42.684;23.350;2023-03-13T02:53:38;95688.84;;;3.30;100.00
14067;BME280;7108;42.684;23.350;2023-03-13T02:56:04;95668.00;;;3.10;100.00
14067;BME280;7108;42.684;23.350;2023-03-13T02:58:41;95685.25;;;3.13;100.00
14067;BME280;7108;42.684;23.350;2023-03-13T03:01:07;95702.25;;;3.25;100.00
14067;BME280;7108;42.684;23.350;2023-03-13T03:03:34;95690.94;;;3.20;100.00
14067;BME280;7108;42.684;23.350;2023-03-13T03:06:00;95680.63;;;3.05;100.00
14067;BME280;7108;42.684;23.350;2023-03-13T03:08:26;95694.09;;;3.22;100.00
14067;BME280;7108;42.684;23.350;2023-03-13T03:10:52;95696.28;;;3.20;100.00
14067;BME280;7108;42.684;23.350;2023-03-13T03:13:17;95674.69;;;3.08;100.00
14067;BME280;7108;42.684;23.350;2023-03-13T03:15:43;95688.41;;;3.15;100.00
14067;BME280;7108;42.684;23.350;2023-03-13T03:18:08;95708.03;;;3.05;100.00
14067;BME280;7108;42.684;23.350;2023-03-13T03:20:37;95700.16;;;3.00;100.00
14067;BME280;7108;42.684;23.350;2023-03-13T03:23:02;95701.16;;;2.91;100.00
14067;BME280;7108;42.684;23.350;2023-03-13T03:25:28;95710.34;;;2.85;100.00
14067;BME280;7108;42.684;23.350;2023-03-13T03:27:53;95734.34;;;2.93;100.00
14067;BME280;7108;42.684;23.350;2023-03-13T03:30:22;95730.34;;;2.69;100.00
14067;BME280;7108;42.684;23.350;2023-03-13T03:32:47;95719.50;;;2.65;100.00
14067;BME280;7108;42.684;23.350;2023-03-13T03:35:13;95732.72;;;2.70;100.00
14067;BME280;7108;42.684;23.350;2023-03-13T03:37:38;95738.81;;;2.71;100.00
14067;BME280;7108;42.684;23.350;2023-03-13T03:40:04;95727.09;;;2.58;100.00
14067;BME280;7108;42.684;23.350;2023-03-13T03:42:31;95744.63;;;2.73;100.00
14067;BME280;7108;42.684;23.350;2023-03-13T03:44:56;95754.19;;;2.74;100.00
14067;BME280;7108;42.684;23.350;2023-03-13T03:47:22;95745.88;;;2.49;100.00
14067;BME280;7108;42.684;23.350;2023-03-13T03:49:48;95781.16;;;2.67;100.00
14067;BME280;7108;42.684;23.350;2023-03-13T03:52:13;95780.47;;;2.62;100.00
14067;BME280;7108;42.684;23.350;2023-03-13T03:54:39;95777.50;;;2.63;100.00
14067;BME280;7108;42.684;23.350;2023-03-13T03:57:07;95772.41;;;2.67;100.00
14067;BME280;7108;42.684;23.350;2023-03-13T03:59:35;95775.94;;;2.76;100.00
14067;BME280;7108;42.684;23.350;2023-03-13T04:02:04;95763.63;;;2.53;100.00
14067;BME280;7108;42.684;23.350;2023-03-13T04:04:36;95789.34;;;2.71;100.00
14067;BME280;7108;42.684;23.350;2023-03-13T04:07:02;95782.94;;;2.58;100.00
14067;BME280;7108;42.684;23.350;2023-03-13T04:09:27;95779.28;;;2.55;100.00
14067;BME280;7108;42.684;23.350;2023-03-13T04:11:53;95773.47;;;2.53;100.00
14067;BME280;7108;42.684;23.350;2023-03-13T04:14:18;95807.50;;;2.69;100.00
14067;BME280;7108;42.684;23.350;2023-03-13T04:16:44;95790.22;;;2.53;100.00
14067;BME280;7108;42.684;23.350;2023-03-13T04:19:09;95785.59;;;2.58;100.00
14067;BME280;7108;42.684;23.350;2023-03-13T04:21:35;95794.34;;;2.46;100.00
14067;BME280;7108;42.684;23.350;2023-03-13T04:24:01;95818.00;;;2.60;100.00
14067;BME280;7108;42.684;23.350;2023-03-13T04:26:29;95792.22;;;2.29;100.00
14067;BME280;7108;42.684;23.350;2023-03-13T04:28:54;95766.81;;;2.10;100.00
14067;BME280;7108;42.684;23.350;2023-03-13T04:31:20;95752.09;;;1.99;100.00
14067;BME280;7108;42.684;23.350;2023-03-13T04:33:46;95835.59;;;2.43;100.00
14067;BME280;7108;42.684;23.350;2023-03-13T04:36:11;95828.50;;;2.39;100.00
14067;BME280;7108;42.684;23.350;2023-03-13T04:38:36;95789.75;;;2.19;100.00
14067;BME280;7108;42.684;23.350;2023-03-13T04:41:02;95802.81;;;2.16;100.00
14067;BME280;7108;42.684;23.350;2023-03-13T04:43:28;95847.19;;;2.34;100.00
14067;BME280;7108;42.684;23.350;2023-03-13T04:45:53;95834.75;;;2.29;100.00
14067;BME280;7108;42.684;23.350;2023-03-13T04:48:19;95852.03;;;2.45;100.00
14067;BME280;7108;42.684;23.350;2023-03-13T04:50:46;95811.31;;;2.18;100.00
14067;BME280;7108;42.684;23.350;2023-03-13T04:53:12;95832.41;;;2.28;100.00
14067;BME280;7108;42.684;23.350;2023-03-13T04:55:38;95844.97;;;2.41;100.00
14067;BME280;7108;42.684;23.350;2023-03-13T04:58:04;95851.34;;;2.40;100.00
14067;BME280;7108;42.684;23.350;2023-03-13T05:00:29;95823.91;;;2.12;100.00
14067;BME280;7108;42.684;23.350;2023-03-13T05:02:55;95839.38;;;2.24;100.00
14067;BME280;7108;42.684;23.350;2023-03-13T05:05:20;95859.41;;;2.35;100.00
14067;BME280;7108;42.684;23.350;2023-03-13T05:07:46;95832.19;;;2.24;100.00
14067;BME280;7108;42.684;23.350;2023-03-13T05:10:11;95866.72;;;2.43;100.00
14067;BME280;7108;42.684;23.350;2023-03-13T05:12:37;95794.25;;;2.05;100.00
14067;BME280;7108;42.684;23.350;2023-03-13T05:15:03;95846.59;;;2.37;100.00
14067;BME280;7108;42.684;23.350;2023-03-13T05:17:28;95870.34;;;2.47;100.00
14067;BME280;7108;42.684;23.350;2023-03-13T05:19:54;95860.94;;;2.22;100.00
14067;BME280;7108;42.684;23.350;2023-03-13T05:22:19;95804.66;;;2.02;100.00
14067;BME280;7108;42.684;23.350;2023-03-13T05:24:45;95873.41;;;2.40;100.00
14067;BME280;7108;42.684;23.350;2023-03-13T05:27:10;95858.06;;;2.19;100.00
14067;BME280;7108;42.684;23.350;2023-03-13T05:29:36;95855.63;;;2.22;100.00
14067;BME280;7108;42.684;23.350;2023-03-13T05:32:02;95836.00;;;2.18;100.00
14067;BME280;7108;42.684;23.350;2023-03-13T05:34:27;95895.31;;;2.51;100.00
14067;BME280;7108;42.684;23.350;2023-03-13T05:36:52;95812.47;;;2.12;100.00
14067;BME280;7108;42.684;23.350;2023-03-13T05:39:18;95895.56;;;2.81;100.00
14067;BME280;7108;42.684;23.350;2023-03-13T05:41:44;95870.19;;;3.28;100.00
14067;BME280;7108;42.684;23.350;2023-03-13T05:44:09;95849.44;;;3.66;100.00
14067;BME280;7108;42.684;23.350;2023-03-13T05:46:35;95837.22;;;3.78;100.00
14067;BME280;7108;42.684;23.350;2023-03-13T05:49:00;95878.22;;;4.48;100.00
14067;BME280;7108;42.684;23.350;2023-03-13T05:51:29;95843.91;;;4.76;100.00
14067;BME280;7108;42.684;23.350;2023-03-13T05:53:54;95851.84;;;4.98;100.00
14067;BME280;7108;42.684;23.350;2023-03-13T05:56:20;95869.50;;;5.08;100.00
14067;BME280;7108;42.684;23.350;2023-03-13T05:58:46;95904.53;;;5.06;100.00
14067;BME280;7108;42.684;23.350;2023-03-13T06:01:12;95898.88;;;5.08;100.00
14067;BME280;7108;42.684;23.350;2023-03-13T06:03:38;95901.94;;;4.93;100.00
14067;BME280;7108;42.684;23.350;2023-03-13T06:06:04;95883.06;;;4.67;100.00
14067;BME280;7108;42.684;23.350;2023-03-13T06:08:29;95908.09;;;4.71;100.00
14067;BME280;7108;42.684;23.350;2023-03-13T06:11:01;95880.59;;;4.49;100.00
14067;BME280;7108;42.684;23.350;2023-03-13T06:13:27;95910.19;;;4.61;100.00
14067;BME280;7108;42.684;23.350;2023-03-13T06:15:54;95900.44;;;4.35;100.00
14067;BME280;7108;42.684;23.350;2023-03-13T06:18:21;95898.53;;;4.35;100.00
14067;BME280;7108;42.684;23.350;2023-03-13T06:20:48;95889.81;;;4.65;100.00
14067;BME280;7108;42.684;23.350;2023-03-13T06:23:13;95910.50;;;5.42;100.00
14067;BME280;7108;42.684;23.350;2023-03-13T06:25:39;95900.13;;;5.79;100.00
14067;BME280;7108;42.684;23.350;2023-03-13T06:28:05;95903.19;;;6.03;100.00
14067;BME280;7108;42.684;23.350;2023-03-13T06:30:30;95908.53;;;6.20;100.00
14067;BME280;7108;42.684;23.350;2023-03-13T06:32:59;95905.44;;;6.35;100.00
14067;BME280;7108;42.684;23.350;2023-03-13T06:35:25;95900.53;;;6.62;100.00
14067;BME280;7108;42.684;23.350;2023-03-13T06:37:50;95876.28;;;6.75;100.00
14067;BME280;7108;42.684;23.350;2023-03-13T06:40:16;95885.38;;;7.00;99.86
14067;BME280;7108;42.684;23.350;2023-03-13T06:42:41;95860.00;;;6.97;95.00
14067;BME280;7108;42.684;23.350;2023-03-13T06:45:07;95866.44;;;7.05;95.75
14067;BME280;7108;42.684;23.350;2023-03-13T06:47:33;95868.44;;;7.24;93.81
14067;BME280;7108;42.684;23.350;2023-03-13T06:49:58;95893.56;;;7.49;94.12
14067;BME280;7108;42.684;23.350;2023-03-13T06:52:24;95878.09;;;7.54;91.54
14067;BME280;7108;42.684;23.350;2023-03-13T06:54:50;95889.84;;;7.70;91.37
14067;BME280;7108;42.684;23.350;2023-03-13T06:57:15;95860.09;;;7.55;91.63
14067;BME280;7108;42.684;23.350;2023-03-13T06:59:43;95873.19;;;7.56;91.10
14067;BME280;7108;42.684;23.350;2023-03-13T07:02:10;95878.34;;;7.70;91.95
14067;BME280;7108;42.684;23.350;2023-03-13T07:04:36;95845.41;;;7.61;90.75
14067;BME280;7108;42.684;23.350;2023-03-13T07:07:02;95880.19;;;7.78;89.71
14067;BME280;7108;42.684;23.350;2023-03-13T07:09:28;95838.16;;;7.24;89.31
14067;BME280;7108;42.684;23.350;2023-03-13T07:11:53;95888.53;;;7.39;90.37
14067;BME280;7108;42.684;23.350;2023-03-13T07:14:19;95888.81;;;7.00;89.94
14067;BME280;7108;42.684;23.350;2023-03-13T07:16:45;95884.84;;;7.15;90.02
14067;BME280;7108;42.684;23.350;2023-03-13T07:19:11;95878.75;;;6.97;92.62
14067;BME280;7108;42.684;23.350;2023-03-13T07:21:37;95870.44;;;6.73;94.36
14067;BME280;7108;42.684;23.350;2023-03-13T07:24:03;95869.00;;;6.93;96.45
14067;BME280;7108;42.684;23.350;2023-03-13T07:26:29;95861.38;;;7.03;95.06
14067;BME280;7108;42.684;23.350;2023-03-13T07:28:57;95853.97;;;7.17;95.90
14067;BME280;7108;42.684;23.350;2023-03-13T07:31:23;95877.88;;;7.30;92.64
14067;BME280;7108;42.684;23.350;2023-03-13T07:33:49;95878.28;;;7.41;95.18
14067;BME280;7108;42.684;23.350;2023-03-13T07:36:17;95877.97;;;7.42;93.40
14067;BME280;7108;42.684;23.350;2023-03-13T07:38:52;95882.19;;;7.52;93.53
14067;BME280;7108;42.684;23.350;2023-03-13T07:41:19;95847.91;;;7.28;92.06
14067;BME280;7108;42.684;23.350;2023-03-13T07:43:45;95886.34;;;7.41;92.51
14067;BME280;7108;42.684;23.350;2023-03-13T07:46:14;95887.44;;;7.40;93.99
14067;BME280;7108;42.684;23.350;2023-03-13T07:48:41;95855.28;;;7.40;91.78
14067;BME280;7108;42.684;23.350;2023-03-13T07:51:16;95853.41;;;7.69;92.50
14067;BME280;7108;42.684;23.350;2023-03-13T07:53:43;95863.66;;;7.96;89.57
14067;BME280;7108;42.684;23.350;2023-03-13T07:56:16;95882.91;;;8.27;88.96
14067;BME280;7108;42.684;23.350;2023-03-13T07:58:45;95865.34;;;8.29;84.31
14067;BME280;7108;42.684;23.350;2023-03-13T08:01:25;95850.16;;;8.33;84.97
14067;BME280;7108;42.684;23.350;2023-03-13T08:03:52;95871.03;;;8.48;86.45
14067;BME280;7108;42.684;23.350;2023-03-13T08:06:23;95845.56;;;8.54;86.22
14067;BME280;7108;42.684;23.350;2023-03-13T08:08:50;95853.22;;;8.64;86.13
14067;BME280;7108;42.684;23.350;2023-03-13T08:11:19;95848.16;;;8.83;84.41
14067;BME280;7108;42.684;23.350;2023-03-13T08:13:46;95837.00;;;8.60;85.44
14067;BME280;7108;42.684;23.350;2023-03-13T08:16:13;95847.69;;;8.81;85.35
14067;BME280;7108;42.684;23.350;2023-03-13T08:18:40;95849.19;;;8.90;85.03
14067;BME280;7108;42.684;23.350;2023-03-13T08:21:17;95822.97;;;8.87;87.79
14067;BME280;7108;42.684;23.350;2023-03-13T08:23:45;95862.97;;;8.68;88.47
14067;BME280;7108;42.684;23.350;2023-03-13T08:26:19;95837.69;;;8.69;85.72
14067;BME280;7108;42.684;23.350;2023-03-13T08:28:47;95850.28;;;8.89;85.53
14067;BME280;7108;42.684;23.350;2023-03-13T08:33:44;95852.44;;;8.43;84.39
14067;BME280;7108;42.684;23.350;2023-03-13T08:36:15;95837.28;;;8.27;83.09
14067;BME280;7108;42.684;23.350;2023-03-13T08:38:45;95834.88;;;7.84;85.00
14067;BME280;7108;42.684;23.350;2023-03-13T08:41:17;95865.00;;;8.10;86.39
14067;BME280;7108;42.684;23.350;2023-03-13T08:43:46;95817.31;;;7.87;87.71
14067;BME280;7108;42.684;23.350;2023-03-13T08:46:13;95831.38;;;8.33;91.33
14067;BME280;7108;42.684;23.350;2023-03-13T08:48:39;95855.78;;;8.60;84.82
14067;BME280;7108;42.684;23.350;2023-03-13T08:51:08;95853.19;;;8.52;82.03
14067;BME280;7108;42.684;23.350;2023-03-13T08:53:35;95847.53;;;8.65;84.53
14067;BME280;7108;42.684;23.350;2023-03-13T08:56:01;95849.53;;;8.68;83.23
14067;BME280;7108;42.684;23.350;2023-03-13T08:58:31;95842.25;;;8.69;81.27
14067;BME280;7108;42.684;23.350;2023-03-13T09:01:08;95833.16;;;8.82;85.70
14067;BME280;7108;42.684;23.350;2023-03-13T09:03:34;95840.31;;;8.78;80.18
14067;BME280;7108;42.684;23.350;2023-03-13T09:06:03;95846.53;;;8.70;82.17
14067;BME280;7108;42.684;23.350;2023-03-13T09:08:30;95845.91;;;8.85;84.36
14067;BME280;7108;42.684;23.350;2023-03-13T09:10:57;95811.94;;;8.68;83.06
14067;BME280;7108;42.684;23.350;2023-03-13T09:13:24;95817.88;;;8.74;82.78
14067;BME280;7108;42.684;23.350;2023-03-13T09:16:04;95827.56;;;8.87;84.88
14067;BME280;7108;42.684;23.350;2023-03-13T09:18:31;95836.41;;;8.87;82.84
14067;BME280;7108;42.684;23.350;2023-03-13T09:20:56;95826.75;;;8.54;85.28
14067;BME280;7108;42.684;23.350;2023-03-13T09:23:22;95832.47;;;8.52;82.63
14067;BME280;7108;42.684;23.350;2023-03-13T09:25:52;95801.47;;;8.55;86.90
14067;BME280;7108;42.684;23.350;2023-03-13T09:28:18;95828.06;;;8.48;84.09
14067;BME280;7108;42.684;23.350;2023-03-13T09:30:43;95822.34;;;8.38;84.88
14067;BME280;7108;42.684;23.350;2023-03-13T09:33:09;95811.06;;;8.44;85.63
14067;BME280;7108;42.684;23.350;2023-03-13T09:35:37;95825.97;;;8.21;83.61
14067;BME280;7108;42.684;23.350;2023-03-13T09:38:03;95813.66;;;7.71;86.02
14067;BME280;7108;42.684;23.350;2023-03-13T09:40:29;95839.66;;;7.71;87.39
14067;BME280;7108;42.684;23.350;2023-03-13T09:42:58;95803.63;;;7.22;90.10
14067;BME280;7108;42.684;23.350;2023-03-13T09:45:37;95823.47;;;7.67;91.37
14067;BME280;7108;42.684;23.350;2023-03-13T09:48:12;95803.50;;;7.77;88.50
14067;BME280;7108;42.684;23.350;2023-03-13T09:50:46;95829.13;;;7.94;86.78
14067;BME280;7108;42.684;23.350;2023-03-13T09:54:16;95837.34;;;8.10;88.48
14067;BME280;7108;42.684;23.350;2023-03-13T09:56:16;95822.69;;;8.07;88.37
14067;BME280;7108;42.684;23.350;2023-03-13T09:58:49;95819.97;;;7.95;89.33
14067;BME280;7108;42.684;23.350;2023-03-13T10:01:19;95790.56;;;7.99;88.45
14067;BME280;7108;42.684;23.350;2023-03-13T10:04:20;95807.84;;;8.10;85.61
14067;BME280;7108;42.684;23.350;2023-03-13T10:06:49;95794.88;;;8.12;89.34
14067;BME280;7108;42.684;23.350;2023-03-13T10:09:22;95818.13;;;8.48;91.94
14067;BME280;7108;42.684;23.350;2023-03-13T10:19:41;95789.72;;;8.27;86.79
14067;BME280;7108;42.684;23.350;2023-03-13T10:22:15;95792.88;;;8.49;84.63
14067;BME280;7108;42.684;23.350;2023-03-13T10:24:58;95777.47;;;8.70;84.96
14067;BME280;7108;42.684;23.350;2023-03-13T10:27:24;95772.50;;;8.93;83.66
14067;BME280;7108;42.684;23.350;2023-03-13T10:29:50;95767.78;;;9.02;79.93
14067;BME280;7108;42.684;23.350;2023-03-13T10:32:16;95770.50;;;9.13;81.31
14067;BME280;7108;42.684;23.350;2023-03-13T10:34:59;95760.53;;;9.26;78.03
14067;BME280;7108;42.684;23.350;2023-03-13T10:37:28;95764.22;;;9.21;77.77
14067;BME280;7108;42.684;23.350;2023-03-13T10:40:18;95766.47;;;9.31;78.07
14067;BME280;7108;42.684;23.350;2023-03-13T10:42:44;95759.53;;;9.42;76.99
14067;BME280;7108;42.684;23.350;2023-03-13T10:45:15;95743.72;;;9.53;80.31
14067;BME280;7108;42.684;23.350;2023-03-13T10:47:41;95732.38;;;9.59;81.25
14067;BME280;7108;42.684;23.350;2023-03-13T10:50:18;95737.06;;;9.74;78.13
14067;BME280;7108;42.684;23.350;2023-03-13T10:52:47;95713.81;;;9.42;74.09
14067;BME280;7108;42.684;23.350;2023-03-13T10:55:20;95730.81;;;9.46;76.17
14067;BME280;7108;42.684;23.350;2023-03-13T10:58:00;95709.09;;;9.39;79.60
14067;BME280;7108;42.684;23.350;2023-03-13T11:00:33;95730.84;;;9.34;76.51
14067;BME280;7108;42.684;23.350;2023-03-13T11:03:01;95724.34;;;9.35;78.60
14067;BME280;7108;42.684;23.350;2023-03-13T11:05:29;95730.38;;;9.56;76.64
14067;BME280;7108;42.684;23.350;2023-03-13T11:07:55;95710.75;;;9.56;77.81
14067;BME280;7108;42.684;23.350;2023-03-13T11:10:28;95700.28;;;9.78;81.29
14067;BME280;7108;42.684;23.350;2023-03-13T11:12:55;95693.91;;;9.71;79.72
14067;BME280;7108;42.684;23.350;2023-03-13T11:24:04;95669.91;;;10.17;74.37
14067;BME280;7108;42.684;23.350;2023-03-13T11:26:36;95687.59;;;10.45;73.05
14067;BME280;7108;42.684;23.350;2023-03-13T11:29:14;95688.84;;;10.63;72.87
14067;BME280;7108;42.684;23.350;2023-03-13T11:31:56;95671.63;;;10.52;74.02
14067;BME280;7108;42.684;23.350;2023-03-13T11:34:35;95687.03;;;10.67;70.92
14067;BME280;7108;42.684;23.350;2023-03-13T11:37:14;95676.41;;;10.74;69.53
14067;BME280;7108;42.684;23.350;2023-03-13T11:42:45;95668.41;;;10.77;69.66
14067;BME280;7108;42.684;23.350;2023-03-13T11:45:39;95658.59;;;10.85;69.54
14067;BME280;7108;42.684;23.350;2023-03-13T11:51:06;95651.13;;;10.94;69.43
14067;BME280;7108;42.684;23.350;2023-03-13T11:56:54;95628.22;;;11.03;68.33
14067;BME280;7108;42.684;23.350;2023-03-13T12:04:42;95617.25;;;11.27;68.68
14067;BME280;7108;42.684;23.350;2023-03-13T12:10:08;95612.78;;;11.34;66.69
14067;BME280;7108;42.684;23.350;2023-03-13T12:13:06;95607.66;;;11.48;63.76
14067;BME280;7108;42.684;23.350;2023-03-13T12:15:41;95604.88;;;11.60;63.06
14067;BME280;7108;42.684;23.350;2023-03-13T12:18:33;95602.75;;;11.69;65.78
14067;BME280;7108;42.684;23.350;2023-03-13T12:21:05;95594.44;;;11.77;59.68
14067;BME280;7108;42.684;23.350;2023-03-13T12:26:05;95594.53;;;11.81;60.05
14067;BME280;7108;42.684;23.350;2023-03-13T12:31:28;95593.84;;;12.06;63.76
14067;BME280;7108;42.684;23.350;2023-03-13T12:34:29;95581.75;;;12.00;62.95
14067;BME280;7108;42.684;23.350;2023-03-13T12:37:20;95583.91;;;11.91;62.74
14067;BME280;7108;42.684;23.350;2023-03-13T12:39:52;95577.09;;;11.97;61.68
14067;BME280;7108;42.684;23.350;2023-03-13T12:45:06;95577.44;;;11.96;62.12
14067;BME280;7108;42.684;23.350;2023-03-13T13:00:51;95568.97;;;11.97;63.12
14067;BME280;7108;42.684;23.350;2023-03-13T13:03:30;95589.72;;;12.12;59.57
14067;BME280;7108;42.684;23.350;2023-03-13T13:06:06;95579.03;;;11.97;58.17
14067;BME280;7108;42.684;23.350;2023-03-13T13:08:39;95588.25;;;11.96;59.76
14067;BME280;7108;42.684;23.350;2023-03-13T13:14:01;95572.63;;;11.67;60.35
14067;BME280;7108;42.684;23.350;2023-03-13T13:16:31;95580.72;;;11.67;59.27
14067;BME280;7108;42.684;23.350;2023-03-13T13:29:56;95571.09;;;11.66;59.64
14067;BME280;7108;42.684;23.350;2023-03-13T13:32:45;95556.69;;;11.43;59.03
14067;BME280;7108;42.684;23.350;2023-03-13T13:37:37;95570.38;;;11.50;56.08
14067;BME280;7108;42.684;23.350;2023-03-13T13:43:17;95564.06;;;11.46;58.80
14067;BME280;7108;42.684;23.350;2023-03-13T13:46:02;95556.63;;;11.40;59.36
14067;BME280;7108;42.684;23.350;2023-03-13T13:48:35;95550.38;;;11.36;59.43
14067;BME280;7108;42.684;23.350;2023-03-13T14:02:04;95550.16;;;11.44;58.40
14067;BME280;7108;42.684;23.350;2023-03-13T14:07:11;95537.44;;;11.45;57.97
14067;BME280;7108;42.684;23.350;2023-03-13T14:12:25;95535.03;;;11.40;59.22
14067;BME280;7108;42.684;23.350;2023-03-13T14:17:44;95540.00;;;11.38;58.78
14067;BME280;7108;42.684;23.350;2023-03-13T14:20:31;95537.81;;;11.24;59.26
14067;BME280;7108;42.684;23.350;2023-03-13T14:23:08;95524.72;;;11.08;60.23
14067;BME280;7108;42.684;23.350;2023-03-13T14:25:46;95541.81;;;11.15;60.28
14067;BME280;7108;42.684;23.350;2023-03-13T14:28:23;95519.53;;;11.18;61.36
14067;BME280;7108;42.684;23.350;2023-03-13T14:30:52;95528.28;;;11.30;60.11
14067;BME280;7108;42.684;23.350;2023-03-13T14:33:18;95536.88;;;11.36;59.21
14067;BME280;7108;42.684;23.350;2023-03-13T14:35:44;95524.38;;;11.28;58.41
14067;BME280;7108;42.684;23.350;2023-03-13T14:38:21;95539.13;;;11.34;60.29
14067;BME280;7108;42.684;23.350;2023-03-13T14:40:48;95540.72;;;11.35;59.52
14067;BME280;7108;42.684;23.350;2023-03-13T14:43:39;95529.50;;;11.33;62.84
14067;BME280;7108;42.684;23.350;2023-03-13T14:46:34;95517.44;;;11.27;58.89
14067;BME280;7108;42.684;23.350;2023-03-13T14:49:15;95522.09;;;11.30;59.95
14067;BME280;7108;42.684;23.350;2023-03-13T14:51:41;95503.34;;;11.18;60.28
14067;BME280;7108;42.684;23.350;2023-03-13T14:57:10;95521.41;;;11.33;60.88
14067;BME280;7108;42.684;23.350;2023-03-13T14:59:37;95526.38;;;11.31;64.74
14067;BME280;7108;42.684;23.350;2023-03-13T15:07:25;95509.91;;;11.17;58.49
14067;BME280;7108;42.684;23.350;2023-03-13T15:09:54;95517.28;;;11.20;59.78
14067;BME280;7108;42.684;23.350;2023-03-13T15:12:22;95515.34;;;11.20;60.12